Time;durP1;ratioP1;P1;durP2;ratioP2;P2;SDS_P1;SDS_P2;PMS_P1;PMS_P2;Temp;Humidity;BMP_temperature;BMP_pressure;BME280_temperature;BME280_humidity;BME280_pressure;Samples;Min_cycle;Max_cycle;Signal;HPM_P1;HPM_P2
2023/02/20 00:02:07;;;;;;;;;;;;;;;;;;8397648;28;28567;-82
2023/02/20 00:06:07;;;;;;;;;;;;;;;;;;8392441;28;28860;-83
2023/02/20 00:10:07;;;;;;;;;;;;;;;;;;8395357;28;28468;-82
2023/02/20 00:14:07;;;;;;;;;;;;;;;;;;8394579;28;28257;-81
2023/02/20 00:18:07;;;;;;;;;;;;;;;;;;8395829;28;28433;-80
2023/02/20 00:22:07;;;;;;;;;;;;;;;;;;8393044;28;28908;-81
2023/02/20 00:26:07;;;;;;;;;;;;;;;;;;8391963;28;27322;-82
2023/02/20 00:30:07;;;;;;;;;;;;;;;;;;8402723;28;28479;-81
2023/02/20 00:34:08;;;;;;;;;;;;;;;;;;8397466;28;29139;-80
2023/02/20 00:38:08;;;;;;;;;;;;;;;;;;8394960;28;28479;-81
2023/02/20 00:42:08;;;;;;;;;;;;;;;;;;8401262;28;27369;-81
2023/02/20 00:46:08;;;;;;;;;;;;;;;;;;8395247;27;28625;-79
2023/02/20 00:50:08;;;;;;;;;;;;;;;;;;8397213;28;28627;-81
2023/02/20 00:54:08;;;;;;;;;;;;;;;;;;8393601;28;29261;-83
2023/02/20 00:58:08;;;;;;;;;;;;;;;;;;8386584;28;28722;-80
2023/02/20 01:02:08;;;;;;;;;;;;;;;;;;8390884;28;29736;-81
2023/02/20 01:06:08;;;;;;;;;;;;;;;;;;8396358;27;27124;-81
2023/02/20 01:10:08;;;;;;;;;;;;;;;;;;8395978;28;28565;-81
2023/02/20 01:14:08;;;;;;;;;;;;;;;;;;8395021;28;27226;-80
2023/02/20 01:18:08;;;;;;;;;;;;;;;;;;8392538;28;28651;-80
2023/02/20 01:22:09;;;;;;;;;;;;;;;;;;8396047;28;28175;-80
2023/02/20 01:26:09;;;;;;;;;;;;;;;;;;8400882;28;27936;-80
2023/02/20 01:30:09;;;;;;;;;;;;;;;;;;8399502;28;28855;-81
2023/02/20 01:34:09;;;;;;;;;;;;;;;;;;8395142;28;29468;-81
2023/02/20 01:38:09;;;;;;;;;;;;;;;;;;8401485;27;27852;-83
2023/02/20 01:42:09;;;;;;;;;;;;;;;;;;8393885;28;29345;-81
2023/02/20 01:46:09;;;;;;;;;;;;;;;;;;8396987;28;28833;-80
2023/02/20 01:50:09;;;;;;;;;;;;;;;;;;8399506;28;28591;-80
2023/02/20 01:54:09;;;;;;;;;;;;;;;;;;8397523;28;28588;-79
2023/02/20 01:58:10;;;;;;;;;;;;;;;;;;8398856;28;28861;-80
2023/02/20 02:02:10;;;;;;;;;;;;;;;;;;8396266;28;28743;-80
2023/02/20 02:06:10;;;;;;;;;;;;;;;;;;8401954;28;27090;-81
2023/02/20 02:10:10;;;;;;;;;;;;;;;;;;8395979;28;28442;-81
2023/02/20 02:14:10;;;;;;;;;;;;;;;;;;8398781;28;28655;-81
2023/02/20 02:18:12;;;;;;;;;;;;;;;;;;8398197;28;27106;-81
2023/02/20 02:22:13;;;;;;;;;;;;;;;;;;8396071;28;27224;-83
2023/02/20 02:26:13;;;;;;;;;;;;;;;;;;8398645;28;27364;-83
2023/02/20 02:30:13;;;;;;;;;;;;;;;;;;8397423;28;27314;-79
2023/02/20 02:34:13;;;;;;;;;;;;;;;;;;8393967;28;28589;-82
2023/02/20 02:38:13;;;;;;;;;;;;;;;;;;8398636;28;28855;-83
2023/02/20 02:42:13;;;;;;;;;;;;;;;;;;8392808;28;28516;-82
2023/02/20 02:46:14;;;;;;;;;;;;;;;;;;8393167;28;28763;-83
2023/02/20 02:50:14;;;;;;;;;;;;;;;;;;8397153;28;28635;-83
2023/02/20 02:54:14;;;;;;;;;;;;;;;;;;8393510;28;28748;-83
2023/02/20 02:58:14;;;;;;;;;;;;;;;;;;8396565;28;29418;-82
2023/02/20 03:02:14;;;;;;;;;;;;;;;;;;8398679;28;27288;-82
2023/02/20 03:06:15;;;;;;;;;;;;;;;;;;8398274;28;28706;-83
2023/02/20 03:10:19;;;;;;;;;;;;;;;;;;8403795;28;27352;-82
2023/02/20 03:18:38;;;;;;;;;;;;;;;;;;8397821;28;27268;-84
2023/02/20 03:22:38;;;;;;;;;;;;;;;;;;8400300;28;28453;-83
2023/02/20 03:26:38;;;;;;;;;;;;;;;;;;8403240;28;28460;-84
2023/02/20 03:30:38;;;;;;;;;;;;;;;;;;8400206;28;28602;-83
2023/02/20 03:43:26;;;;;;;;;;;;;;;;;;8396715;28;28533;-83
2023/02/20 03:47:26;;;;;;;;;;;;;;;;;;8398440;28;28985;-83
2023/02/20 03:51:26;;;;;;;;;;;;;;;;;;8401065;28;28445;-83
2023/02/20 03:55:26;;;;;;;;;;;;;;;;;;8402772;28;28841;-83
2023/02/20 03:59:27;;;;;;;;;;;;;;;;;;8401506;28;29551;-82
2023/02/20 04:03:27;;;;;;;;;;;;;;;;;;8399563;28;28433;-83
2023/02/20 04:07:27;;;;;;;;;;;;;;;;;;8396647;28;28783;-83
2023/02/20 04:11:27;;;;;;;;;;;;;;;;;;8404014;28;28631;-83
2023/02/20 04:15:27;;;;;;;;;;;;;;;;;;8398940;28;27185;-83
2023/02/20 04:19:27;;;;;;;;;;;;;;;;;;8401035;28;30089;-83
2023/02/20 04:23:27;;;;;;;;;;;;;;;;;;8405154;28;27300;-84
2023/02/20 04:27:27;;;;;;;;;;;;;;;;;;8404976;28;27483;-83
2023/02/20 04:31:27;;;;;;;;;;;;;;;;;;8403400;28;28472;-83
2023/02/20 04:35:27;;;;;;;;;;;;;;;;;;8397312;28;27476;-82
2023/02/20 04:39:27;;;;;;;;;;;;;;;;;;8402026;28;27449;-82
2023/02/20 04:43:28;;;;;;;;;;;;;;;;;;8398576;28;27284;-82
2023/02/20 04:47:28;;;;;;;;;;;;;;;;;;8405561;28;27218;-82
2023/02/20 04:51:28;;;;;;;;;;;;;;;;;;8396472;28;28427;-82
2023/02/20 04:55:28;;;;;;;;;;;;;;;;;;8396363;28;28440;-82
2023/02/20 04:59:28;;;;;;;;;;;;;;;;;;8399686;28;27457;-83
2023/02/20 05:03:28;;;;;;;;;;;;;;;;;;8391564;28;29423;-82
2023/02/20 05:07:28;;;;;;;;;;;;;;;;;;8394195;28;28506;-82
2023/02/20 05:11:28;;;;;;;;;;;;;;;;;;8401154;28;28465;-83
2023/02/20 05:15:28;;;;;;;;;;;;;;;;;;8392976;28;28101;-82
2023/02/20 05:19:28;;;;;;;;;;;;;;;;;;8395348;28;27282;-83
2023/02/20 05:23:29;;;;;;;;;;;;;;;;;;8394425;28;27889;-82
2023/02/20 05:27:29;;;;;;;;;;;;;;;;;;8400140;28;28499;-83
2023/02/20 05:31:29;;;;;;;;;;;;;;;;;;8395059;28;27601;-83
2023/02/20 05:35:29;;;;;;;;;;;;;;;;;;8390223;28;27171;-82
2023/02/20 05:39:29;;;;;;;;;;;;;;;;;;8391868;28;28686;-83
2023/02/20 05:43:29;;;;;;;;;;;;;;;;;;8396055;28;28422;-82
2023/02/20 05:47:29;;;;;;;;;;;;;;;;;;8392970;28;29101;-83
2023/02/20 05:51:29;;;;;;;;;;;;;;;;;;8397211;28;28487;-82
2023/02/20 05:55:29;;;;;;;;;;;;;;;;;;8399639;28;29864;-83
2023/02/20 05:59:29;;;;;;;;;;;;;;;;;;8397055;28;28760;-83
2023/02/20 06:03:30;;;;;;;;;;;;;;;;;;8396946;28;29661;-83
2023/02/20 06:07:30;;;;;;;;;;;;;;;;;;8394690;28;28262;-82
2023/02/20 06:11:30;;;;;;;;;;;;;;;;;;8401317;28;27304;-81
2023/02/20 06:15:30;;;;;;;;;;;;;;;;;;8398553;28;28678;-82
2023/02/20 06:19:30;;;;;;;;;;;;;;;;;;8401613;28;27186;-82
2023/02/20 06:23:30;;;;;;;;;;;;;;;;;;8394271;28;28417;-82
2023/02/20 06:27:30;;;;;;;;;;;;;;;;;;8398342;28;28156;-82
2023/02/20 06:31:30;;;;;;;;;;;;;;;;;;8397145;28;27424;-83
2023/02/20 06:35:30;;;;;;;;;;;;;;;;;;8398218;28;28784;-82
2023/02/20 06:39:30;;;;;;;;;;;;;;;;;;8404013;28;27180;-82
2023/02/20 06:43:31;;;;;;;;;;;;;;;;;;8398028;28;29661;-81
2023/02/20 06:47:31;;;;;;;;;;;;;;;;;;8394163;28;28734;-82
2023/02/20 06:51:31;;;;;;;;;;;;;;;;;;8401987;28;27411;-82
2023/02/20 06:55:31;;;;;;;;;;;;;;;;;;8397560;28;27450;-83
2023/02/20 06:59:38;;;;;;;;;;;;;;;;;;8398476;28;27279;-82
2023/02/20 07:03:38;;;;;;;;;;;;;;;;;;8399248;28;28736;-84
2023/02/20 07:07:38;;;;;;;;;;;;;;;;;;8394116;28;27618;-83
2023/02/20 07:11:38;;;;;;;;;;;;;;;;;;8393183;28;28440;-83
2023/02/20 07:15:38;;;;;;;;;;;;;;;;;;8394567;28;28575;-83
2023/02/20 07:19:38;;;;;;;;;;;;;;;;;;8404445;28;27517;-80
2023/02/20 07:23:38;;;;;;;;;;;;;;;;;;8395759;28;29583;-84
2023/02/20 07:27:39;;;;;;;;;;;;;;;;;;8392486;28;28167;-82
2023/02/20 07:31:39;;;;;;;;;;;;;;;;;;8396618;28;27906;-82
2023/02/20 07:35:39;;;;;;;;;;;;;;;;;;8391933;28;27285;-83
2023/02/20 07:39:39;;;;;;;;;;;;;;;;;;8398009;28;27156;-83
2023/02/20 07:43:39;;;;;;;;;;;;;;;;;;8396943;28;28859;-82
2023/02/20 07:47:39;;;;;;;;;;;;;;;;;;8397334;28;27401;-83
2023/02/20 07:51:39;;;;;;;;;;;;;;;;;;8392077;28;28475;-83
2023/02/20 07:55:39;;;;;;;;;;;;;;;;;;8392692;27;28258;-82
2023/02/20 07:59:39;;;;;;;;;;;;;;;;;;8395335;28;27067;-83
2023/02/20 08:03:39;;;;;;;;;;;;;;;;;;8394366;28;28715;-81
2023/02/20 08:07:39;;;;;;;;;;;;;;;;;;8395209;27;29823;-80
2023/02/20 08:11:39;;;;;;;;;;;;;;;;;;8393150;28;28460;-82
2023/02/20 08:15:40;;;;;;;;;;;;;;;;;;8390119;28;28584;-82
2023/02/20 08:19:40;;;;;;;;;;;;;;;;;;8386695;27;27136;-82
2023/02/20 08:23:41;;;;;;;;;;;;;;;;;;8389146;28;28650;-82
2023/02/20 08:27:41;;;;;;;;;;;;;;;;;;8394775;28;28700;-82
2023/02/20 08:31:41;;;;;;;;;;;;;;;;;;8395510;28;27172;-82
2023/02/20 08:35:41;;;;;;;;;;;;;;;;;;8395843;28;28125;-82
2023/02/20 08:39:41;;;;;;;;;;;;;;;;;;8398007;28;28186;-81
2023/02/20 08:43:42;;;;;;;;;;;;;;;;;;8394977;28;28528;-81
2023/02/20 08:47:42;;;;;;;;;;;;;;;;;;8394317;28;28660;-83
2023/02/20 08:51:42;;;;;;;;;;;;;;;;;;8394140;28;27859;-82
2023/02/20 08:55:42;;;;;;;;;;;;;;;;;;8395607;28;28486;-81
2023/02/20 08:59:42;;;;;;;;;;;;;;;;;;8399565;28;28794;-82
2023/02/20 09:03:42;;;;;;;;;;;;;;;;;;8392924;28;27925;-81
2023/02/20 09:07:44;;;;;;;;;;;;;;;;;;8392299;28;29333;-80
2023/02/20 09:11:44;;;;;;;;;;;;;;;;;;8392563;28;27195;-81
2023/02/20 09:15:44;;;;;;;;;;;;;;;;;;8391784;28;27900;-80
2023/02/20 09:19:44;;;;;;;;;;;;;;;;;;8394449;27;28692;-82
2023/02/20 09:23:44;;;;;;;;;;;;;;;;;;8394506;28;28325;-81
2023/02/20 09:27:44;;;;;;;;;;;;;;;;;;8400685;28;27095;-84
2023/02/20 09:31:44;;;;;;;;;;;;;;;;;;8400383;28;28741;-82
2023/02/20 09:35:44;;;;;;;;;;;;;;;;;;8399611;28;28067;-83
2023/02/20 09:39:44;;;;;;;;;;;;;;;;;;8398635;28;28655;-82
2023/02/20 09:43:44;;;;;;;;;;;;;;;;;;8395972;27;28504;-82
2023/02/20 09:47:45;;;;;;;;;;;;;;;;;;8395685;28;28792;-80
2023/02/20 09:51:45;;;;;;;;;;;;;;;;;;8397464;28;28231;-81
2023/02/20 09:55:45;;;;;;;;;;;;;;;;;;8396765;28;29933;-82
2023/02/20 09:59:45;;;;;;;;;;;;;;;;;;8399012;28;27580;-82
2023/02/20 10:03:45;;;;;;;;;;;;;;;;;;8390292;28;28156;-81
2023/02/20 10:07:45;;;;;;;;;;;;;;;;;;8396964;28;28773;-82
2023/02/20 10:11:45;;;;;;;;;;;;;;;;;;8395487;28;28508;-81
2023/02/20 10:15:45;;;;;;;;;;;;;;;;;;8393361;28;29941;-81
2023/02/20 10:19:45;;;;;;;;;;;;;;;;;;8393324;28;29021;-81
2023/02/20 10:23:45;;;;;;;;;;;;;;;;;;8393736;28;28429;-80
2023/02/20 10:27:45;;;;;;;;;;;;;;;;;;8395130;28;29917;-80
2023/02/20 10:31:46;;;;;;;;;;;;;;;;;;8390632;28;28794;-80
2023/02/20 10:35:46;;;;;;;;;;;;;;;;;;8389183;27;28751;-81
2023/02/20 10:39:46;;;;;;;;;;;;;;;;;;8395543;28;28808;-81
2023/02/20 10:43:46;;;;;;;;;;;;;;;;;;8387626;28;29876;-80
2023/02/20 10:47:46;;;;;;;;;;;;;;;;;;8390707;28;27426;-79
2023/02/20 10:51:46;;;;;;;;;;;;;;;;;;8391571;28;27102;-81
2023/02/20 10:55:46;;;;;;;;;;;;;;;;;;8390569;28;27964;-81
2023/02/20 10:59:46;;;;;;;;;;;;;;;;;;8390031;28;27387;-81
2023/02/20 11:03:46;;;;;;;;;;;;;;;;;;8387853;28;28477;-81
2023/02/20 11:07:47;;;;;;;;;;;;;;;;;;8389552;28;28574;-82
2023/02/20 11:11:47;;;;;;;;;;;;;;;;;;8390102;28;28445;-82
2023/02/20 11:15:47;;;;;;;;;;;;;;;;;;8392602;27;28496;-81
2023/02/20 11:19:47;;;;;;;;;;;;;;;;;;8393584;27;28282;-80
2023/02/20 11:23:47;;;;;;;;;;;;;;;;;;8383494;28;27169;-81
2023/02/20 11:27:48;;;;;;;;;;;;;;;;;;8394756;28;28735;-82
2023/02/20 11:31:48;;;;;;;;;;;;;;;;;;8398911;27;28803;-82
2023/02/20 11:35:48;;;;;;;;;;;;;;;;;;8393999;28;28807;-82
2023/02/20 11:39:49;;;;;;;;;;;;;;;;;;8403996;28;28482;-82
2023/02/20 11:43:49;;;;;;;;;;;;;;;;;;8391090;28;28777;-83
2023/02/20 11:47:49;;;;;;;;;;;;;;;;;;8401124;28;29877;-83
2023/02/20 11:51:49;;;;;;;;;;;;;;;;;;8396445;28;28481;-83
2023/02/20 11:55:49;;;;;;;;;;;;;;;;;;8396042;28;28715;-83
2023/02/20 11:59:49;;;;;;;;;;;;;;;;;;8399340;28;27706;-80
2023/02/20 12:03:49;;;;;;;;;;;;;;;;;;8391129;28;28540;-81
2023/02/20 12:07:50;;;;;;;;;;;;;;;;;;8392817;28;29549;-83
2023/02/20 12:11:50;;;;;;;;;;;;;;;;;;8396418;28;28648;-82
2023/02/20 12:15:50;;;;;;;;;;;;;;;;;;8394314;28;28940;-82
2023/02/20 12:19:50;;;;;;;;;;;;;;;;;;8395271;28;29074;-81
2023/02/20 12:23:50;;;;;;;;;;;;;;;;;;8389482;28;28419;-82
2023/02/20 12:27:51;;;;;;;;;;;;;;;;;;8395441;28;27152;-80
2023/02/20 12:31:51;;;;;;;;;;;;;;;;;;8413962;27;28392;-82
2023/02/20 12:35:51;;;;;;;;;;;;;;;;;;8393219;28;27971;-82
2023/02/20 12:39:52;;;;;;;;;;;;;;;;;;8391663;28;28188;-82
2023/02/20 12:43:52;;;;;;;;;;;;;;;;;;8390362;28;27602;-83
2023/02/20 12:47:52;;;;;;;;;;;;;;;;;;8394924;27;28568;-81
2023/02/20 12:51:52;;;;;;;;;;;;;;;;;;8397929;27;27160;-82
2023/02/20 12:55:52;;;;;;;;;;;;;;;;;;8394562;28;28870;-79
2023/02/20 12:59:52;;;;;;;;;;;;;;;;;;8400980;28;29572;-82
2023/02/20 13:03:53;;;;;;;;;;;;;;;;;;8396418;27;27104;-82
2023/02/20 13:07:53;;;;;;;;;;;;;;;;;;8397355;28;27400;-82
2023/02/20 13:11:55;;;;;;;;;;;;;;;;;;8396833;28;28939;-80
2023/02/20 13:15:55;;;;;;;;;;;;;;;;;;8397748;27;28814;-81
2023/02/20 13:19:55;;;;;;;;;;;;;;;;;;8401480;28;28036;-82
2023/02/20 13:23:55;;;;;;;;;;;;;;;;;;8395073;28;27327;-82
2023/02/20 13:27:55;;;;;;;;;;;;;;;;;;8392567;28;28924;-81
2023/02/20 13:31:55;;;;;;;;;;;;;;;;;;8391931;28;29551;-80
2023/02/20 13:35:55;;;;;;;;;;;;;;;;;;8397137;28;28578;-83
2023/02/20 13:39:55;;;;;;;;;;;;;;;;;;8387187;28;29105;-81
2023/02/20 13:43:55;;;;;;;;;;;;;;;;;;8387687;28;28508;-79
2023/02/20 13:47:55;;;;;;;;;;;;;;;;;;8391686;28;27175;-82
2023/02/20 13:51:56;;;;;;;;;;;;;;;;;;8384217;28;28431;-82
2023/02/20 13:55:56;;;;;;;;;;;;;;;;;;8388257;28;28678;-81
2023/02/20 13:59:56;;;;;;;;;;;;;;;;;;8388313;28;27831;-80
2023/02/20 14:03:56;;;;;;;;;;;;;;;;;;8388086;28;28005;-81
2023/02/20 14:07:56;;;;;;;;;;;;;;;;;;8384224;28;28653;-81
2023/02/20 14:11:56;;;;;;;;;;;;;;;;;;8382269;28;27671;-81
2023/02/20 14:15:56;;;;;;;;;;;;;;;;;;8389735;28;28891;-81
2023/02/20 14:19:56;;;;;;;;;;;;;;;;;;8386555;28;28154;-81
2023/02/20 14:23:56;;;;;;;;;;;;;;;;;;8380917;28;28788;-81
2023/02/20 14:27:56;;;;;;;;;;;;;;;;;;8388424;27;28375;-81
2023/02/20 14:31:57;;;;;;;;;;;;;;;;;;8388999;28;28506;-82
2023/02/20 14:35:58;;;;;;;;;;;;;;;;;;8387979;28;28828;-82
2023/02/20 14:39:58;;;;;;;;;;;;;;;;;;8395922;28;28085;-83
2023/02/20 14:43:59;;;;;;;;;;;;;;;;;;8390236;28;27073;-80
2023/02/20 14:47:59;;;;;;;;;;;;;;;;;;8390336;28;28487;-81
2023/02/20 14:51:59;;;;;;;;;;;;;;;;;;8389149;28;28945;-82
2023/02/20 14:55:59;;;;;;;;;;;;;;;;;;8393543;28;28144;-84
2023/02/20 14:59:59;;;;;;;;;;;;;;;;;;8388505;28;27505;-84
2023/02/20 15:03:59;;;;;;;;;;;;;;;;;;8389164;28;27441;-83
2023/02/20 15:07:59;;;;;;;;;;;;;;;;;;8398612;28;27330;-83
2023/02/20 15:11:59;;;;;;;;;;;;;;;;;;8392190;28;29384;-83
2023/02/20 15:15:59;;;;;;;;;;;;;;;;;;8393832;28;27747;-81
2023/02/20 15:20:00;;;;;;;;;;;;;;;;;;8394649;28;28094;-81
2023/02/20 15:24:00;;;;;;;;;;;;;;;;;;8390024;28;27504;-82
2023/02/20 15:28:00;;;;;;;;;;;;;;;;;;8405245;27;27943;-81
2023/02/20 15:32:00;;;;;;;;;;;;;;;;;;8395928;28;29084;-81
2023/02/20 15:36:00;;;;;;;;;;;;;;;;;;8399260;28;27277;-82
2023/02/20 15:40:00;;;;;;;;;;;;;;;;;;8398356;28;28418;-81
2023/02/20 15:44:02;;;;;;;;;;;;;;;;;;8398625;28;28167;-82
2023/02/20 15:48:02;;;;;;;;;;;;;;;;;;8397659;28;28838;-82
2023/02/20 15:52:02;;;;;;;;;;;;;;;;;;8385819;28;29060;-80
2023/02/20 15:56:02;;;;;;;;;;;;;;;;;;8395666;28;29991;-81
2023/02/20 16:00:03;;;;;;;;;;;;;;;;;;8392688;28;29250;-81
2023/02/20 16:04:03;;;;;;;;;;;;;;;;;;8388685;28;28691;-81
2023/02/20 16:08:03;;;;;;;;;;;;;;;;;;8399906;28;28399;-80
2023/02/20 16:12:04;;;;;;;;;;;;;;;;;;8402205;27;28306;-81
2023/02/20 16:16:04;;;;;;;;;;;;;;;;;;8392085;28;27720;-81
2023/02/20 16:20:04;;;;;;;;;;;;;;;;;;8387411;28;28751;-79
2023/02/20 16:24:04;;;;;;;;;;;;;;;;;;8393675;28;29675;-80
2023/02/20 16:28:04;;;;;;;;;;;;;;;;;;8403269;28;28384;-80
2023/02/20 16:32:04;;;;;;;;;;;;;;;;;;8403036;28;27362;-80
2023/02/20 16:36:04;;;;;;;;;;;;;;;;;;8402994;28;28897;-81
2023/02/20 16:40:04;;;;;;;;;;;;;;;;;;8398056;28;28630;-80
2023/02/20 16:44:04;;;;;;;;;;;;;;;;;;8395424;28;27377;-81
2023/02/20 16:48:05;;;;;;;;;;;;;;;;;;8392255;27;27560;-82
2023/02/20 16:52:10;;;;;;;;;;;;;;;;;;8391656;28;27304;-81
2023/02/20 16:56:10;;;;;;;;;;;;;;;;;;8395236;28;28958;-81
2023/02/20 17:00:10;;;;;;;;;;;;;;;;;;8392274;28;27559;-81
2023/02/20 17:04:13;;;;;;;;;;;;;;;;;;8396491;28;27237;-81
2023/02/20 17:08:13;;;;;;;;;;;;;;;;;;8392487;28;27470;-79
2023/02/20 17:12:13;;;;;;;;;;;;;;;;;;8385076;28;28913;-81
2023/02/20 17:16:13;;;;;;;;;;;;;;;;;;8390313;28;27360;-82
2023/02/20 17:20:13;;;;;;;;;;;;;;;;;;8391277;28;27392;-82
2023/02/20 17:24:13;;;;;;;;;;;;;;;;;;8390059;28;28483;-82
2023/02/20 17:28:14;;;;;;;;;;;;;;;;;;8395054;28;28440;-81
2023/02/20 17:32:14;;;;;;;;;;;;;;;;;;8390370;28;28874;-81
2023/02/20 17:36:15;;;;;;;;;;;;;;;;;;8391814;28;28989;-81
2023/02/20 17:40:15;;;;;;;;;;;;;;;;;;8390114;28;29369;-79
2023/02/20 17:44:15;;;;;;;;;;;;;;;;;;8395069;28;30237;-81
2023/02/20 17:48:15;;;;;;;;;;;;;;;;;;8390624;28;27475;-81
2023/02/20 17:52:15;;;;;;;;;;;;;;;;;;8389582;28;27305;-81
2023/02/20 17:56:15;;;;;;;;;;;;;;;;;;8391415;28;28338;-82
2023/02/20 18:04:24;;;;;;;;;;;;;;;;;;8340534;28;28995;-80
2023/02/20 18:08:27;;;;;;;;;;;;;;;;;;8325829;28;28295;-82
2023/02/20 18:12:27;;;;;;;;;;;;;;;;;;8346750;28;28255;-81
2023/02/20 18:16:33;;;;;;;;;;;;;;;;;;8343705;28;29203;-82
2023/02/20 18:20:51;;;;;;;;;;;;;;;;;;8348645;28;28885;-81
2023/02/20 18:24:54;;;;;;;;;;;;;;;;;;8332707;28;28471;-82
2023/02/20 18:28:57;;;;;;;;;;;;;;;;;;8347285;28;27691;-82
2023/02/20 18:32:57;;;;;;;;;;;;;;;;;;8345690;28;28663;-82
2023/02/20 18:36:58;;;;;;;;;;;;;;;;;;8344136;28;27591;-81
2023/02/20 18:41:00;;;;;;;;;;;;;;;;;;8341337;28;28097;-81
2023/02/20 18:45:03;;;;;;;;;;;;;;;;;;8343395;28;28232;-81
2023/02/20 18:49:19;;;;;;;;;;;;;;;;;;8344708;28;28585;-80
2023/02/20 18:53:27;;;;;;;;;;;;;;;;;;8327919;28;48264;-80
2023/02/20 18:57:36;;;;;;;;;;;;;;;;;;8343636;28;27316;-81
2023/02/20 19:01:36;;;;;;;;;;;;;;;;;;8342530;28;28611;-82
2023/02/20 19:05:36;;;;;;;;;;;;;;;;;;8344528;28;28428;-82
2023/02/20 19:09:37;;;;;;;;;;;;;;;;;;8342059;28;28344;-82
2023/02/20 19:13:37;;;;;;;;;;;;;;;;;;8342067;28;28341;-83
2023/02/20 19:17:37;;;;;;;;;;;;;;;;;;8342120;28;28254;-80
2023/02/20 19:21:37;;;;;;;;;;;;;;;;;;8338734;28;28626;-81
2023/02/20 19:25:37;;;;;;;;;;;;;;;;;;8339803;28;28252;-82
2023/02/20 19:29:38;;;;;;;;;;;;;;;;;;8330700;28;29859;-82
2023/02/20 19:33:38;;;;;;;;;;;;;;;;;;8343630;28;28988;-83
2023/02/20 19:37:38;;;;;;;;;;;;;;;;;;8342652;28;27325;-83
2023/02/20 19:41:38;;;;;;;;;;;;;;;;;;8344323;28;29152;-83
2023/02/20 19:45:38;;;;;;;;;;;;;;;;;;8346540;28;28981;-83
2023/02/20 19:49:38;;;;;;;;;;;;;;;;;;8344013;28;29951;-82
2023/02/20 19:53:38;;;;;;;;;;;;;;;;;;8349970;28;27373;-82
2023/02/20 19:57:38;;;;;;;;;;;;;;;;;;8344638;28;28564;-82
2023/02/20 20:01:38;;;;;;;;;;;;;;;;;;8348109;28;27210;-83
2023/02/20 20:05:39;;;;;;;;;;;;;;;;;;8347967;28;28549;-82
2023/02/20 20:09:39;;;;;;;;;;;;;;;;;;8346901;28;28906;-80
2023/02/20 20:13:39;;;;;;;;;;;;;;;;;;8348507;28;29617;-81
2023/02/20 20:17:39;;;;;;;;;;;;;;;;;;8348963;28;27447;-81
2023/02/20 20:21:39;;;;;;;;;;;;;;;;;;8348261;28;28804;-81
2023/02/20 20:25:39;;;;;;;;;;;;;;;;;;8349222;28;29607;-82
2023/02/20 20:29:41;;;;;;;;;;;;;;;;;;8351799;28;28698;-82
2023/02/20 20:33:43;;;;;;;;;;;;;;;;;;8344924;28;28688;-81
2023/02/20 20:37:43;;;;;;;;;;;;;;;;;;8349585;28;29658;-82
2023/02/20 20:41:43;;;;;;;;;;;;;;;;;;8350332;28;28459;-82
2023/02/20 20:45:43;;;;;;;;;;;;;;;;;;8347772;28;28646;-82
2023/02/20 20:49:43;;;;;;;;;;;;;;;;;;8344702;28;28816;-82
2023/02/20 20:53:44;;;;;;;;;;;;;;;;;;8350511;28;28428;-83
2023/02/20 20:57:44;;;;;;;;;;;;;;;;;;8355268;28;28931;-82
2023/02/20 21:01:44;;;;;;;;;;;;;;;;;;8345907;28;27421;-82
2023/02/20 21:05:44;;;;;;;;;;;;;;;;;;8348506;28;27428;-83
2023/02/20 21:09:44;;;;;;;;;;;;;;;;;;8330298;28;28865;-83
2023/02/20 21:13:44;;;;;;;;;;;;;;;;;;8345932;28;29079;-84
2023/02/20 21:17:44;;;;;;;;;;;;;;;;;;8344442;28;28505;-82
2023/02/20 21:21:44;;;;;;;;;;;;;;;;;;8344493;28;27674;-83
2023/02/20 21:25:44;;;;;;;;;;;;;;;;;;8345008;28;28806;-82
2023/02/20 21:29:44;;;;;;;;;;;;;;;;;;8347239;28;29756;-82
2023/02/20 21:33:44;;;;;;;;;;;;;;;;;;8344613;28;28029;-83
2023/02/20 21:37:44;;;;;;;;;;;;;;;;;;8343881;28;28447;-82
2023/02/20 21:46:04;;;;;;;;;;;;;;;;;;8348055;28;27160;-82
2023/02/20 21:50:04;;;;;;;;;;;;;;;;;;8342737;28;28929;-82
2023/02/20 21:54:04;;;;;;;;;;;;;;;;;;8342489;28;28502;-82
